Дата Время Давление Темп. Влажн. Скор.ветра Напр.ветра Макс.ветер Осадки/час Осадки
16.07.20 15:00 740 15.6 87.4 1.8 245 5.1 0 5.8
16.07.20 14:00 739.8 15.3 87 1.9 238 5.6 0 5.8
16.07.20 13:00 739.1 15.8 88.7 1.9 219 4.8 0 5.8
16.07.20 12:00 738.5 15 89.8 1.9 231 6.1 0 5.8
16.07.20 11:00 738.3 14.4 92.6 1.5 270 4.7 0 5.8
16.07.20 10:00 737.6 15.1 90.8 1.5 208 5.1 0 5.8
16.07.20 09:00 737.5 14.3 94 1.3 242 4.9 0 5.8
16.07.20 08:00 737.1 13.9 95.3 1.1 243 4.1 0.2 5.8
16.07.20 07:00 737 13.7 95.5 1.1 220 5.6 0.8 5.6
16.07.20 06:00 736.7 13.8 95.4 1.9 227 3.8 1.4 4.8
16.07.20 05:00 736.6 14 95 1.5 232 5.1 2 3.4
16.07.20 04:00 736.4 14.5 94.6 1.5 239 4.5 0 1.4
16.07.20 03:00 736.2 14.8 94.3 1.8 238 3.9 0.2 1.4
16.07.20 02:00 735.9 14.7 93.4 1.4 239 3.9 1.2 1.2
16.07.20 01:00 735.7 15 92.1 1.5 217 3.4 0 0
16.07.20 00:00 735.6 15.7 89.8 1 264 3.2 0 0.8
15.07.20 23:00 735.2 16.2 87.7 0.9 268 1.9 0 0.8
15.07.20 22:00 735.3 17.1 83.6 0.6 133 1.9 0 0.8
15.07.20 21:00 735.3 17.7 78.7 0.9 343 2.1 0 0.8
15.07.20 20:00 735.2 19.4 72.9 1.3 234 2.6 0 0.8
15.07.20 19:00 734.4 23.8 57.5 1.4 178 3 0 0.8
15.07.20 18:00 733.7 23.3 58.6 1.4 191 3.8 0 0.8
15.07.20 17:00 732.7 23.3 56.4 1 124 5.5 0 0.8
15.07.20 16:00 733.2 23.1 60.7 1.4 125 6.2 0 0.8